Pezhoto — LZG2277 — position and weather

sailwx.info

Track history (hours):
 
Tides and Currents Weather Stations Pressure Air Temp Water Temp Dewpoint Dewpoint Depression Visibility Wind Speed Wind Dir Waves Ship Positions

Pezhoto

Last reported at 2017-Oct-02 15:48 UTC. Time now 2017-Oct-17 08:13 UTC.
Position N 44°17' E 028°04'.
Warning: this ship's position is 14 days out of date.

Length 80 m.

Type: Ship (hazmat cat D). MMSI: 207072277.

Date/timePositionNaut miles runAvg speedWind from/ knotsBaromVisibWave heightAir tempDewpointWater temp
2017-Oct-02 15:48N 44°17' E 028°04'2 7.4
2017-Oct-02 15:30N 44°16' E 028°07'4 7.5
2017-Oct-02 15:00N 44°16' E 028°12'4 7.6
2017-Oct-02 14:30N 44°15' E 028°18'3 6.9
2017-Oct-02 14:00N 44°14' E 028°22'4 7.4
2017-Oct-02 13:29N 44°10' E 028°24'7 6.6
2017-Oct-02 12:24N 44°06' E 028°32'3 7.8
2017-Oct-02 12:00N 44°06' E 028°37'0 1.0
2017-Oct-02 11:30N 44°06' E 028°37'1 2.7
2017-Oct-02 11:00N 44°06' E 028°39'0 0.0
2017-Oct-02 10:30N 44°06' E 028°39'0 0.0
2017-Oct-02 10:00N 44°06' E 028°39'0 0.0
2017-Oct-02 09:30N 44°06' E 028°39'0 0.0
2017-Oct-02 09:00N 44°06' E 028°39'0 0.0
2017-Oct-02 08:30N 44°06' E 028°39'0 0.0
2017-Oct-02 08:00N 44°06' E 028°39'0 0.0
2017-Oct-02 07:30N 44°06' E 028°39'0 0.0
2017-Oct-02 07:00N 44°06' E 028°39'0 0.0
2017-Oct-02 06:30N 44°06' E 028°39'0 0.0
2017-Oct-02 06:00N 44°06' E 028°39'0 0.0
2017-Oct-02 05:30N 44°06' E 028°39'0 0.0
2017-Oct-02 05:00N 44°06' E 028°39'0 0.0
2017-Oct-02 04:30N 44°06' E 028°39'0 0.0
2017-Oct-02 04:00N 44°06' E 028°39'0 0.0
2017-Oct-02 03:30N 44°06' E 028°39'0 0.0
2017-Oct-02 03:00N 44°06' E 028°39'0 0.0
2017-Oct-02 02:30N 44°06' E 028°39'0 0.0
2017-Oct-02 02:00N 44°06' E 028°39'0 0.0
2017-Oct-02 01:30N 44°06' E 028°39'0 0.0
2017-Oct-02 01:00N 44°06' E 028°39'0 0.0
2017-Oct-02 00:30N 44°06' E 028°39'0 0.0
2017-Oct-02 00:00N 44°06' E 028°39'1 2.8
2017-Oct-01 23:30N 44°06' E 028°37'0 0.0
2017-Oct-01 23:00N 44°06' E 028°37'1 1.0
2017-Oct-01 22:30N 44°06' E 028°37'0 0.0
2017-Oct-01 22:00N 44°06' E 028°37'0 0.0
2017-Oct-01 21:30N 44°06' E 028°37'0 0.1
2017-Oct-01 21:00N 44°06' E 028°36'9 5.6
2017-Oct-01 19:20N 44°10' E 028°25'3 6.5
2017-Oct-01 18:56N 44°12' E 028°23'3 6.6
2017-Oct-01 18:30N 44°15' E 028°21'3 6.4
2017-Oct-01 18:00N 44°15' E 028°17'3 6.5
2017-Oct-01 17:30N 44°16' E 028°12'3 6.5
2017-Oct-01 17:00N 44°16' E 028°08'  
Track history (hours):
 
Tides and Currents Weather Stations Pressure Air Temp Water Temp Dewpoint Dewpoint Depression Visibility Wind Speed Wind Dir Waves Ship Positions

Pezhoto

Last reported at 2017-Oct-02 15:48 UTC. Time now 2017-Oct-17 08:13 UTC.
Position N 44°17' E 028°04'.
Warning: this ship's position is 14 days out of date.

Length 80 m.

Type: Ship (hazmat cat D). MMSI: 207072277.

Date/timePositionNaut miles runAvg speedWind from/ knotsBaromVisibWave heightAir tempDewpointWater temp
2017-Oct-02 15:48N 44°17' E 028°04'2 7.4
2017-Oct-02 15:30N 44°16' E 028°07'4 7.5
2017-Oct-02 15:00N 44°16' E 028°12'4 7.6
2017-Oct-02 14:30N 44°15' E 028°18'3 6.9
2017-Oct-02 14:00N 44°14' E 028°22'4 7.4
2017-Oct-02 13:29N 44°10' E 028°24'7 6.6
2017-Oct-02 12:24N 44°06' E 028°32'3 7.8
2017-Oct-02 12:00N 44°06' E 028°37'0 1.0
2017-Oct-02 11:30N 44°06' E 028°37'1 2.7
2017-Oct-02 11:00N 44°06' E 028°39'0 0.0
2017-Oct-02 10:30N 44°06' E 028°39'0 0.0
2017-Oct-02 10:00N 44°06' E 028°39'0 0.0
2017-Oct-02 09:30N 44°06' E 028°39'0 0.0
2017-Oct-02 09:00N 44°06' E 028°39'0 0.0
2017-Oct-02 08:30N 44°06' E 028°39'0 0.0
2017-Oct-02 08:00N 44°06' E 028°39'0 0.0
2017-Oct-02 07:30N 44°06' E 028°39'0 0.0
2017-Oct-02 07:00N 44°06' E 028°39'0 0.0
2017-Oct-02 06:30N 44°06' E 028°39'0 0.0
2017-Oct-02 06:00N 44°06' E 028°39'0 0.0
2017-Oct-02 05:30N 44°06' E 028°39'0 0.0
2017-Oct-02 05:00N 44°06' E 028°39'0 0.0
2017-Oct-02 04:30N 44°06' E 028°39'0 0.0
2017-Oct-02 04:00N 44°06' E 028°39'0 0.0
2017-Oct-02 03:30N 44°06' E 028°39'0 0.0
2017-Oct-02 03:00N 44°06' E 028°39'0 0.0
2017-Oct-02 02:30N 44°06' E 028°39'0 0.0
2017-Oct-02 02:00N 44°06' E 028°39'0 0.0
2017-Oct-02 01:30N 44°06' E 028°39'0 0.0
2017-Oct-02 01:00N 44°06' E 028°39'0 0.0
2017-Oct-02 00:30N 44°06' E 028°39'0 0.0
2017-Oct-02 00:00N 44°06' E 028°39'1 2.8
2017-Oct-01 23:30N 44°06' E 028°37'0 0.0
2017-Oct-01 23:00N 44°06' E 028°37'1 1.0
2017-Oct-01 22:30N 44°06' E 028°37'0 0.0
2017-Oct-01 22:00N 44°06' E 028°37'0 0.0
2017-Oct-01 21:30N 44°06' E 028°37'0 0.1
2017-Oct-01 21:00N 44°06' E 028°36'9 5.6
2017-Oct-01 19:20N 44°10' E 028°25'3 6.5
2017-Oct-01 18:56N 44°12' E 028°23'3 6.6
2017-Oct-01 18:30N 44°15' E 028°21'3 6.4
2017-Oct-01 18:00N 44°15' E 028°17'3 6.5
2017-Oct-01 17:30N 44°16' E 028°12'3 6.5
2017-Oct-01 17:00N 44°16' E 028°08'  

Dump ship's entire track history